createdAt,value
2019-04-10T00:01:29.875Z,13.00
2019-04-10T00:04:02.874Z,13.97
2019-04-10T00:06:34.444Z,13.90
2019-04-10T00:09:06.915Z,14.30
2019-04-10T00:11:38.318Z,13.73
2019-04-10T00:14:10.283Z,14.17
2019-04-10T00:16:42.288Z,13.47
2019-04-10T00:19:14.861Z,13.47
2019-04-10T00:21:47.411Z,13.90
2019-04-10T00:24:19.863Z,13.97
2019-04-10T00:26:52.257Z,13.87
2019-04-10T00:29:24.521Z,13.90
2019-04-10T00:31:56.364Z,13.90
2019-04-10T00:34:28.390Z,14.23
2019-04-10T00:36:59.896Z,16.17
2019-04-10T00:39:31.387Z,13.37
2019-04-10T00:42:03.019Z,14.60
2019-04-10T00:44:35.450Z,15.17
2019-04-10T00:47:06.669Z,14.33
2019-04-10T00:49:38.082Z,14.20
2019-04-10T00:52:10.191Z,16.50
2019-04-10T00:54:41.624Z,14.87
2019-04-10T00:57:13.036Z,14.17
2019-04-10T00:59:44.523Z,15.33
2019-04-10T01:02:16.468Z,15.30
2019-04-10T01:04:48.865Z,15.40
2019-04-10T01:07:32.622Z,16.57
2019-04-10T01:09:53.969Z,16.17
2019-04-10T01:12:25.162Z,16.00
2019-04-10T01:14:56.536Z,16.23
2019-04-10T01:17:28.530Z,16.23
2019-04-10T01:20:00.652Z,16.10
2019-04-10T01:22:32.948Z,17.00
2019-04-10T01:25:04.392Z,16.10
2019-04-10T01:27:36.463Z,16.57
2019-04-10T01:30:08.753Z,17.13
2019-04-10T01:32:40.177Z,17.30
2019-04-10T01:35:11.218Z,16.73
2019-04-10T01:37:49.518Z,17.40
2019-04-10T01:40:15.056Z,16.33
2019-04-10T01:42:59.981Z,16.30
2019-04-10T01:45:19.768Z,16.83
2019-04-10T01:47:51.269Z,17.50
2019-04-10T01:50:23.231Z,16.23
2019-04-10T01:52:55.537Z,15.83
2019-04-10T01:55:30.294Z,15.73
2019-04-10T01:58:01.631Z,15.73
2019-04-10T02:00:33.681Z,14.77
2019-04-10T02:03:05.576Z,14.17
2019-04-10T02:05:38.739Z,14.10
2019-04-10T02:08:13.538Z,15.13
2019-04-10T02:10:43.376Z,14.40
2019-04-10T02:13:15.199Z,15.50
2019-04-10T02:15:46.831Z,15.10
2019-04-10T02:18:19.103Z,15.07
2019-04-10T02:20:51.567Z,17.30
2019-04-10T02:23:22.615Z,16.17
2019-04-10T02:25:54.854Z,14.80
2019-04-10T02:28:27.040Z,15.40
2019-04-10T02:30:58.831Z,15.43
2019-04-10T02:33:31.457Z,14.57
2019-04-10T02:36:03.722Z,15.20
2019-04-10T02:38:50.822Z,15.20
2019-04-10T02:41:10.381Z,14.87
2019-04-10T02:43:43.087Z,15.70
2019-04-10T02:46:15.575Z,14.40
2019-04-10T02:48:47.627Z,14.00
2019-04-10T02:51:20.115Z,15.63
2019-04-10T02:53:53.020Z,13.90
2019-04-10T02:56:25.346Z,14.87
2019-04-10T02:58:58.529Z,14.07
2019-04-10T03:01:31.501Z,13.77
2019-04-10T03:04:03.460Z,14.60
2019-04-10T03:06:35.433Z,13.73
2019-04-10T03:09:26.160Z,14.43
2019-04-10T03:11:41.986Z,14.13
2019-04-10T03:14:14.814Z,14.23
2019-04-10T03:16:47.886Z,14.20
2019-04-10T03:19:19.708Z,13.67
2019-04-10T03:21:51.667Z,13.60
2019-04-10T03:24:23.234Z,13.17
2019-04-10T03:26:56.188Z,13.43
2019-04-10T03:29:27.906Z,13.67
2019-04-10T03:32:02.126Z,13.50
2019-04-10T03:34:38.091Z,13.33
2019-04-10T03:37:07.648Z,13.07
2019-04-10T03:39:40.514Z,14.03
2019-04-10T03:42:12.689Z,13.73
2019-04-10T03:44:45.192Z,13.10
2019-04-10T03:47:20.248Z,13.70
2019-04-10T03:49:51.948Z,14.07
2019-04-10T03:52:25.327Z,12.80
2019-04-10T03:54:56.589Z,13.70
2019-04-10T03:57:28.839Z,13.47
2019-04-10T04:00:01.535Z,13.20
2019-04-10T04:02:32.860Z,13.07
2019-04-10T04:05:04.395Z,14.80
2019-04-10T04:07:35.168Z,17.77
2019-04-10T04:10:06.618Z,18.57
2019-04-10T04:12:37.216Z,19.70
2019-04-10T04:15:09.420Z,22.53
2019-04-10T04:17:40.544Z,24.53
2019-04-10T04:20:12.818Z,22.00
2019-04-10T04:22:43.882Z,17.43
2019-04-10T04:25:15.048Z,13.87
2019-04-10T04:27:46.327Z,14.93
2019-04-10T04:30:17.445Z,16.63
2019-04-10T04:32:48.747Z,17.13
2019-04-10T04:35:20.771Z,17.87
2019-04-10T04:37:51.324Z,18.93
2019-04-10T04:40:23.569Z,20.37
2019-04-10T04:42:55.638Z,23.80
2019-04-10T04:45:27.617Z,20.20
2019-04-10T04:47:59.783Z,17.67
2019-04-10T04:50:31.328Z,15.43
2019-04-10T04:53:02.952Z,15.00
2019-04-10T04:55:35.185Z,15.40
2019-04-10T04:58:06.213Z,15.37
2019-04-10T05:00:37.862Z,15.60
2019-04-10T05:03:09.897Z,19.87
2019-04-10T05:05:41.433Z,16.03
2019-04-10T05:08:13.211Z,16.50
2019-04-10T05:10:45.295Z,17.00
2019-04-10T05:13:16.405Z,17.13
2019-04-10T05:15:49.182Z,19.23
2019-04-10T05:18:21.236Z,27.80
2019-04-10T05:20:52.858Z,22.07
2019-04-10T05:23:24.523Z,22.07
2019-04-10T05:25:56.134Z,17.93
2019-04-10T05:28:28.522Z,18.30
2019-04-10T05:31:00.919Z,18.07
2019-04-10T05:33:32.945Z,17.50
2019-04-10T05:36:04.822Z,18.20
2019-04-10T05:38:35.514Z,18.40
2019-04-10T05:41:13.375Z,19.33
2019-04-10T05:43:44.783Z,19.17
2019-04-10T05:46:16.455Z,18.37
2019-04-10T05:48:49.008Z,20.53
2019-04-10T05:51:19.910Z,21.00
2019-04-10T05:53:52.653Z,21.93
2019-04-10T05:56:23.519Z,19.93
2019-04-10T05:58:54.589Z,20.07
2019-04-10T06:01:34.885Z,20.60
2019-04-10T06:03:58.482Z,20.83
2019-04-10T06:06:29.196Z,20.17
2019-04-10T06:09:00.510Z,19.17
2019-04-10T06:11:33.050Z,19.63
2019-04-10T06:14:06.548Z,21.70
2019-04-10T06:16:38.233Z,20.00
2019-04-10T06:19:09.571Z,18.67
2019-04-10T06:21:41.493Z,20.77
2019-04-10T06:24:14.189Z,20.40
2019-04-10T06:26:45.962Z,20.87
2019-04-10T06:29:17.128Z,20.20
2019-04-10T06:31:49.222Z,20.67
2019-04-10T06:34:20.774Z,20.33
2019-04-10T06:36:51.956Z,21.50
2019-04-10T06:39:23.166Z,25.77
2019-04-10T06:41:54.302Z,23.93
2019-04-10T06:44:25.922Z,22.27
2019-04-10T06:46:57.120Z,26.00
2019-04-10T06:49:29.067Z,25.20
2019-04-10T06:52:00.235Z,24.73
2019-04-10T06:54:31.279Z,22.07
2019-04-10T06:57:02.852Z,22.97
2019-04-10T06:59:34.403Z,23.57
2019-04-10T07:02:16.787Z,22.00
2019-04-10T07:04:45.989Z,19.57
2019-04-10T07:07:43.404Z,18.90
2019-04-10T07:10:02.339Z,20.80
2019-04-10T07:12:34.080Z,21.33
2019-04-10T07:15:06.533Z,19.33
2019-04-10T07:17:40.652Z,20.77
2019-04-10T07:20:10.724Z,21.50
2019-04-10T07:22:46.578Z,21.33
2019-04-10T07:25:15.785Z,20.80
2019-04-10T07:27:46.473Z,20.57
2019-04-10T07:30:17.514Z,20.00
2019-04-10T07:32:49.220Z,20.17
2019-04-10T07:35:21.887Z,18.20
2019-04-10T07:37:56.031Z,17.40
2019-04-10T07:40:25.468Z,18.87
2019-04-10T07:42:56.923Z,17.63
2019-04-10T07:45:28.556Z,20.40
2019-04-10T07:48:00.234Z,19.73
2019-04-10T07:50:31.458Z,17.33
2019-04-10T07:53:02.550Z,19.90
2019-04-10T07:55:33.710Z,18.20
2019-04-10T07:58:04.855Z,17.93
2019-04-10T08:00:36.653Z,19.77
2019-04-10T08:03:08.333Z,18.03
2019-04-10T08:05:39.663Z,20.00
2019-04-10T08:08:10.612Z,19.37
2019-04-10T08:10:43.676Z,20.87
2019-04-10T08:13:14.398Z,20.40
2019-04-10T08:15:45.807Z,20.90
2019-04-10T08:18:17.557Z,20.27
2019-04-10T08:20:48.882Z,21.87
2019-04-10T08:23:20.438Z,20.07
2019-04-10T08:25:51.976Z,19.57
2019-04-10T08:28:22.518Z,18.70
2019-04-10T08:30:54.552Z,19.33
2019-04-10T08:33:26.048Z,21.35
2019-04-10T08:35:57.156Z,21.67
2019-04-10T08:38:28.287Z,20.60
2019-04-10T08:41:00.716Z,17.40
2019-04-10T08:43:32.402Z,19.83
2019-04-10T08:46:05.255Z,18.50
2019-04-10T08:48:37.050Z,20.77
2019-04-10T08:51:08.769Z,19.37
2019-04-10T08:53:40.370Z,17.80
2019-04-10T08:56:12.999Z,19.37
2019-04-10T08:58:43.619Z,19.97
2019-04-10T09:01:15.426Z,19.60
2019-04-10T09:03:47.173Z,18.33
2019-04-10T09:06:19.344Z,18.93
2019-04-10T09:08:51.695Z,16.70
2019-04-10T09:11:26.889Z,17.57
2019-04-10T09:13:56.841Z,16.07
2019-04-10T09:16:28.831Z,18.60
2019-04-10T09:19:01.389Z,17.63
2019-04-10T09:21:33.100Z,17.00
2019-04-10T09:24:05.024Z,18.57
2019-04-10T09:26:36.929Z,17.10
2019-04-10T09:29:07.474Z,15.57
2019-04-10T09:31:40.024Z,14.93
2019-04-10T09:34:11.765Z,15.77
2019-04-10T09:36:43.732Z,15.30
2019-04-10T09:39:17.185Z,15.97
2019-04-10T09:41:48.504Z,16.33
2019-04-10T09:44:21.350Z,16.27
2019-04-10T09:46:52.229Z,18.02
2019-04-10T09:49:33.580Z,18.87
2019-04-10T09:51:56.470Z,16.60
2019-04-10T09:54:28.151Z,15.50
2019-04-10T09:56:59.399Z,15.77
2019-04-10T09:59:35.871Z,16.47
2019-04-10T10:02:03.333Z,14.27
2019-04-10T10:04:35.851Z,15.00
2019-04-10T10:07:10.288Z,16.25
2019-04-10T10:09:41.314Z,14.40
2019-04-10T10:12:13.642Z,14.30
2019-04-10T10:14:46.446Z,15.50
2019-04-10T10:17:17.769Z,14.23
2019-04-10T10:19:49.957Z,14.68
2019-04-10T10:22:21.868Z,16.33
2019-04-10T10:24:53.635Z,12.73
2019-04-10T10:27:24.749Z,16.05
2019-04-10T10:29:56.073Z,13.73
2019-04-10T10:32:28.933Z,13.23
2019-04-10T10:35:00.947Z,11.63
2019-04-10T10:37:32.632Z,11.17
2019-04-10T10:40:03.643Z,10.03
2019-04-10T10:42:37.045Z,9.10
2019-04-10T10:45:10.288Z,8.27
2019-04-10T10:47:41.584Z,8.37
2019-04-10T10:50:13.148Z,9.17
2019-04-10T10:52:44.367Z,9.60
2019-04-10T10:55:15.660Z,11.48
2019-04-10T10:57:47.687Z,9.83
2019-04-10T11:00:23.096Z,8.13
2019-04-10T11:02:55.966Z,9.33
2019-04-10T11:05:30.354Z,9.70
2019-04-10T11:08:00.012Z,8.37
2019-04-10T11:10:31.445Z,8.85
2019-04-10T11:13:02.495Z,7.50
2019-04-10T11:15:34.072Z,7.75
2019-04-10T11:18:06.428Z,7.03
2019-04-10T11:20:37.723Z,7.67
2019-04-10T11:23:09.573Z,7.50
2019-04-10T11:25:40.905Z,7.43
2019-04-10T11:28:12.554Z,8.88
2019-04-10T11:30:44.952Z,6.37
2019-04-10T11:33:17.873Z,7.28
2019-04-10T11:35:51.534Z,7.03
2019-04-10T11:38:25.676Z,7.33
2019-04-10T11:40:58.179Z,7.58
2019-04-10T11:43:30.198Z,8.03
2019-04-10T11:46:02.706Z,7.80
2019-04-10T11:48:36.511Z,7.60
2019-04-10T11:51:11.933Z,7.83
2019-04-10T11:53:44.519Z,7.80
2019-04-10T11:56:13.742Z,7.27
2019-04-10T11:58:53.787Z,7.58
2019-04-10T12:01:18.334Z,7.60
2019-04-10T12:03:52.198Z,6.97
2019-04-10T12:06:25.246Z,8.73
2019-04-10T12:11:29.515Z,6.90
2019-04-10T12:14:01.601Z,6.60
2019-04-10T12:16:33.445Z,7.47
2019-04-10T12:19:04.758Z,8.53
2019-04-10T12:21:36.205Z,8.03
2019-04-10T12:24:07.433Z,7.83
2019-04-10T12:26:38.668Z,7.60
2019-04-10T12:29:10.736Z,8.83
2019-04-10T12:31:43.932Z,7.93
2019-04-10T12:34:16.265Z,9.00
2019-04-10T12:36:49.000Z,9.03
2019-04-10T12:39:22.551Z,9.77
2019-04-10T12:41:55.462Z,10.93
2019-04-10T12:44:27.262Z,10.03
2019-04-10T12:46:59.540Z,9.55
2019-04-10T12:49:31.700Z,9.80
2019-04-10T12:52:03.632Z,9.10
2019-04-10T12:54:35.547Z,9.10
2019-04-10T12:57:06.848Z,8.53
2019-04-10T12:59:37.631Z,8.23
2019-04-10T13:02:10.923Z,7.80
2019-04-10T13:04:43.497Z,8.63
2019-04-10T13:07:15.725Z,8.53
2019-04-10T13:09:48.346Z,7.93
2019-04-10T13:12:20.880Z,7.97
2019-04-10T13:14:52.944Z,8.40
2019-04-10T13:17:24.823Z,7.27
2019-04-10T13:19:57.538Z,7.50
2019-04-10T13:22:30.161Z,8.67
2019-04-10T13:25:03.296Z,8.13
2019-04-10T13:27:34.787Z,7.60
2019-04-10T13:30:07.109Z,6.70
2019-04-10T13:32:38.584Z,6.70
2019-04-10T13:35:10.337Z,6.47
2019-04-10T13:37:42.007Z,6.00
2019-04-10T13:40:13.886Z,5.87
2019-04-10T13:42:45.599Z,5.70
2019-04-10T13:45:19.405Z,6.90
2019-04-10T13:47:53.239Z,6.53
2019-04-10T13:50:26.372Z,5.53
2019-04-10T13:53:03.824Z,6.03
2019-04-10T13:55:34.637Z,5.67
2019-04-10T13:58:06.990Z,6.63
2019-04-10T14:00:40.680Z,5.47
2019-04-10T14:03:14.273Z,5.60
2019-04-10T14:05:47.739Z,5.87
2019-04-10T14:08:20.007Z,5.33
2019-04-10T14:10:52.905Z,4.30
2019-04-10T14:13:24.752Z,4.60
2019-04-10T14:15:56.404Z,4.67
2019-04-10T14:18:28.758Z,5.17
2019-04-10T14:21:00.011Z,4.90
2019-04-10T14:23:31.953Z,4.17
2019-04-10T14:26:40.813Z,3.80
2019-04-10T14:29:03.007Z,3.37
2019-04-10T14:31:38.919Z,2.40
2019-04-10T14:34:10.367Z,2.40
2019-04-10T14:36:42.204Z,3.40
2019-04-10T14:39:20.820Z,2.20
2019-04-10T14:41:49.784Z,2.50
2019-04-10T14:44:20.973Z,2.53
2019-04-10T14:46:51.851Z,3.10
2019-04-10T14:49:22.963Z,2.23
2019-04-10T14:51:54.710Z,2.10
2019-04-10T14:54:26.003Z,2.77
2019-04-10T14:56:56.931Z,2.57
2019-04-10T14:59:28.210Z,2.77
2019-04-10T15:01:59.996Z,2.70
2019-04-10T15:04:31.012Z,2.70
2019-04-10T15:07:02.510Z,3.30
2019-04-10T15:09:34.611Z,3.47
2019-04-10T15:12:09.654Z,3.37
2019-04-10T15:14:40.718Z,3.03
2019-04-10T15:17:12.713Z,3.10
2019-04-10T15:19:44.709Z,2.77
2019-04-10T15:22:15.910Z,2.70
2019-04-10T15:24:46.921Z,3.03
2019-04-10T15:27:20.109Z,2.63
2019-04-10T15:29:50.719Z,2.40
2019-04-10T15:32:22.347Z,2.73
2019-04-10T15:34:54.110Z,2.93
2019-04-10T15:37:25.214Z,2.63
2019-04-10T15:39:56.605Z,2.40
2019-04-10T15:42:28.382Z,2.07
2019-04-10T15:44:59.347Z,2.40
2019-04-10T15:47:31.310Z,2.30
2019-04-10T15:50:02.099Z,2.77
2019-04-10T15:52:33.863Z,2.33
2019-04-10T15:55:05.729Z,2.73
2019-04-10T15:57:49.147Z,2.30
2019-04-10T16:00:10.795Z,2.73
2019-04-10T16:02:41.996Z,3.37
2019-04-10T16:05:13.679Z,4.10
2019-04-10T16:07:45.328Z,5.40
2019-04-10T16:10:35.171Z,5.73
2019-04-10T16:13:16.609Z,5.40
2019-04-10T16:15:48.070Z,5.63
2019-04-10T16:18:23.447Z,6.43
2019-04-10T16:20:55.465Z,5.67
2019-04-10T16:23:40.030Z,5.03
2019-04-10T16:26:13.122Z,5.87
2019-04-10T16:28:45.237Z,5.97
2019-04-10T16:31:16.907Z,6.13
2019-04-10T16:33:50.438Z,5.90
2019-04-10T16:36:23.400Z,6.77
2019-04-10T16:38:55.744Z,6.73
2019-04-10T16:41:29.544Z,6.60
2019-04-10T16:44:02.539Z,6.40
2019-04-10T16:46:34.775Z,7.50
2019-04-10T16:49:06.889Z,6.90
2019-04-10T16:51:38.579Z,7.40
2019-04-10T16:54:10.803Z,7.80
2019-04-10T16:56:42.238Z,7.77
2019-04-10T16:59:14.199Z,7.47
2019-04-10T17:01:45.555Z,7.10
2019-04-10T17:04:17.559Z,7.23
2019-04-10T17:06:50.473Z,6.90
2019-04-10T17:09:24.837Z,7.50
2019-04-10T17:11:58.602Z,7.87
2019-04-10T17:14:31.341Z,7.20
2019-04-10T17:17:02.770Z,7.30
2019-04-10T17:19:46.567Z,6.90
2019-04-10T17:22:08.863Z,6.53
2019-04-10T17:24:39.888Z,6.40
2019-04-10T17:27:11.757Z,6.27
2019-04-10T17:29:42.331Z,6.13
2019-04-10T17:32:15.095Z,5.23
2019-04-10T17:34:49.282Z,5.27
2019-04-10T17:37:21.326Z,4.43
2019-04-10T17:39:53.351Z,5.10
2019-04-10T17:42:24.484Z,4.10
2019-04-10T17:44:56.224Z,4.83
2019-04-10T17:47:29.093Z,4.63
2019-04-10T17:50:00.797Z,4.60
2019-04-10T17:52:34.729Z,5.10
2019-04-10T17:55:07.220Z,5.03
2019-04-10T17:57:41.545Z,5.50
2019-04-10T18:00:27.670Z,5.57
2019-04-10T18:02:59.228Z,6.30
2019-04-10T18:05:30.864Z,5.83
2019-04-10T18:08:03.471Z,5.73
2019-04-10T18:10:43.469Z,6.00
2019-04-10T18:13:08.482Z,6.33
2019-04-10T18:15:40.564Z,6.80
2019-04-10T18:18:13.553Z,5.63
2019-04-10T18:20:44.997Z,6.00
2019-04-10T18:23:17.490Z,6.03
2019-04-10T18:25:49.856Z,6.03
2019-04-10T18:28:23.449Z,5.80
2019-04-10T18:30:54.477Z,7.23
2019-04-10T18:33:26.537Z,7.50
2019-04-10T18:35:57.770Z,7.37
2019-04-10T18:38:30.482Z,6.70
2019-04-10T18:41:05.755Z,6.47
2019-04-10T18:43:36.391Z,7.37
2019-04-10T18:46:13.402Z,6.77
2019-04-10T18:48:44.334Z,7.40
2019-04-10T18:51:18.040Z,8.53
2019-04-10T18:53:53.368Z,8.17
2019-04-10T18:56:27.204Z,8.40
2019-04-10T18:59:18.526Z,7.80
2019-04-10T19:02:04.083Z,7.53
2019-04-10T19:04:51.680Z,7.83
2019-04-10T19:07:22.914Z,8.13
2019-04-10T19:09:54.967Z,7.60
2019-04-10T19:12:26.459Z,8.07
2019-04-10T19:14:58.349Z,8.47
2019-04-10T19:17:31.025Z,9.13
2019-04-10T19:20:04.078Z,9.37
2019-04-10T19:22:36.885Z,10.47
2019-04-10T19:25:08.447Z,9.23
2019-04-10T19:27:42.362Z,9.10
2019-04-10T19:30:43.566Z,8.70
2019-04-10T19:33:16.134Z,8.77
2019-04-10T19:35:47.589Z,9.60
2019-04-10T19:38:21.085Z,8.93
2019-04-10T19:40:52.303Z,9.13
2019-04-10T19:43:24.197Z,10.00
2019-04-10T19:45:56.453Z,10.90
2019-04-10T19:48:30.934Z,11.90
2019-04-10T19:51:02.559Z,11.87
2019-04-10T19:53:35.309Z,13.07
2019-04-10T19:56:09.321Z,14.33
2019-04-10T19:58:41.859Z,13.77
2019-04-10T20:01:15.494Z,14.67
2019-04-10T20:03:46.552Z,15.33
2019-04-10T20:06:19.061Z,14.93
2019-04-10T20:08:50.605Z,15.97
2019-04-10T20:11:33.801Z,13.93
2019-04-10T20:13:57.633Z,13.80
2019-04-10T20:16:31.484Z,14.43
2019-04-10T20:19:04.030Z,14.23
2019-04-10T20:21:36.895Z,15.10
2019-04-10T20:24:10.387Z,16.73
2019-04-10T20:26:43.410Z,16.90
2019-04-10T20:29:15.138Z,16.13
2019-04-10T20:31:47.815Z,15.60
2019-04-10T20:34:21.234Z,13.83
2019-04-10T20:36:55.332Z,13.13
2019-04-10T20:39:27.623Z,14.13
2019-04-10T20:42:02.436Z,14.00
2019-04-10T20:44:35.242Z,13.67
2019-04-10T20:47:08.741Z,11.90
2019-04-10T20:49:41.267Z,13.67
2019-04-10T20:52:14.587Z,13.00
2019-04-10T20:54:46.862Z,13.27
2019-04-10T20:57:19.418Z,13.77
2019-04-10T20:59:51.303Z,12.73
2019-04-10T21:02:22.902Z,13.10
2019-04-10T21:05:01.319Z,13.00
2019-04-10T21:07:28.290Z,13.70
2019-04-10T21:10:00.704Z,13.83
2019-04-10T21:12:32.254Z,13.57
2019-04-10T21:15:05.413Z,12.23
2019-04-10T21:17:39.951Z,13.60
2019-04-10T21:20:13.276Z,11.83
2019-04-10T21:22:45.153Z,12.10
2019-04-10T21:25:17.052Z,12.60
2019-04-10T21:27:50.431Z,11.37
2019-04-10T21:30:46.528Z,12.10
2019-04-10T21:33:36.710Z,12.47
2019-04-10T21:36:09.358Z,12.63
2019-04-10T21:38:41.435Z,12.70
2019-04-10T21:41:14.232Z,11.30
2019-04-10T21:43:45.825Z,10.77
2019-04-10T21:46:17.605Z,9.97
2019-04-10T21:48:50.966Z,9.67
2019-04-10T21:51:23.235Z,9.00
2019-04-10T21:53:54.593Z,8.30
2019-04-10T21:56:27.483Z,7.47
2019-04-10T21:58:59.622Z,8.23
2019-04-10T22:01:32.512Z,7.67
2019-04-10T22:04:06.181Z,8.07
2019-04-10T22:06:59.834Z,7.70
2019-04-10T22:09:47.657Z,7.40
2019-04-10T22:12:30.631Z,8.57
2019-04-10T22:14:56.110Z,8.97
2019-04-10T22:17:27.989Z,10.47
2019-04-10T22:19:59.501Z,10.50
2019-04-10T22:22:30.984Z,11.17
2019-04-10T22:25:03.334Z,10.77
2019-04-10T22:27:35.973Z,10.80
2019-04-10T22:30:10.386Z,9.20
2019-04-10T22:32:42.790Z,9.20
2019-04-10T22:35:15.236Z,8.80
2019-04-10T22:37:48.244Z,9.93
2019-04-10T22:40:19.905Z,10.27
2019-04-10T22:42:53.241Z,11.47
2019-04-10T22:45:31.159Z,12.20
2019-04-10T22:48:04.097Z,10.93
2019-04-10T22:50:36.527Z,10.90
2019-04-10T22:53:08.891Z,9.47
2019-04-10T22:55:42.315Z,10.40
2019-04-10T22:58:14.858Z,10.20
2019-04-10T23:00:46.421Z,9.97
2019-04-10T23:03:18.094Z,10.50
2019-04-10T23:05:49.516Z,10.23
2019-04-10T23:08:20.885Z,10.97
2019-04-10T23:10:53.087Z,10.90
2019-04-10T23:13:25.874Z,11.97
2019-04-10T23:15:57.939Z,10.67
2019-04-10T23:18:29.924Z,9.77
2019-04-10T23:21:01.533Z,10.33
2019-04-10T23:23:33.246Z,10.17
2019-04-10T23:26:04.870Z,10.30
2019-04-10T23:28:37.777Z,8.30
2019-04-10T23:31:09.960Z,8.10
2019-04-10T23:33:41.970Z,7.70
2019-04-10T23:36:13.943Z,8.17
2019-04-10T23:38:45.862Z,7.80
2019-04-10T23:41:17.986Z,7.40
2019-04-10T23:43:49.850Z,8.43
2019-04-10T23:46:22.230Z,9.27
2019-04-10T23:48:53.744Z,8.53
2019-04-10T23:51:25.290Z,7.20
2019-04-10T23:53:57.231Z,7.07
2019-04-10T23:56:29.444Z,7.00
2019-04-10T23:59:00.586Z,6.93
